Time;durP1;ratioP1;P1;durP2;ratioP2;P2;SDS_P1;SDS_P2;PMS_P1;PMS_P2;Temp;Humidity;BMP_temperature;BMP_pressure;BME280_temperature;BME280_humidity;BME280_pressure;Samples;Min_cycle;Max_cycle;Signal;HPM_P1;HPM_P2
2022/05/23 00:01:35;;;;;;;12.35;6.22;;;14.50;99.90;;;;;;4893843;29;20019;-59
2022/05/23 00:04:00;;;;;;;12.63;6.50;;;14.40;99.90;;;;;;4880861;29;20052;-60
2022/05/23 00:06:26;;;;;;;15.38;6.53;;;14.40;99.90;;;;;;4890973;29;20036;-60
2022/05/23 00:08:52;;;;;;;14.85;6.53;;;14.30;99.90;;;;;;4892236;29;20104;-60
2022/05/23 00:11:19;;;;;;;13.52;6.70;;;14.40;99.90;;;;;;4890614;29;20384;-60
2022/05/23 00:13:45;;;;;;;13.85;6.40;;;14.50;99.90;;;;;;4890844;29;20036;-59
2022/05/23 00:16:17;;;;;;;13.63;6.13;;;14.50;99.90;;;;;;4890428;29;20547;-60
2022/05/23 00:18:43;;;;;;;13.20;6.32;;;14.50;99.90;;;;;;4893728;29;20032;-60
2022/05/23 00:21:08;;;;;;;14.38;6.20;;;14.40;99.90;;;;;;4891117;29;20035;-59
2022/05/23 00:23:34;;;;;;;11.75;6.45;;;14.50;99.90;;;;;;4890609;29;20032;-61
2022/05/23 00:25:59;;;;;;;14.27;7.00;;;14.60;99.90;;;;;;4890872;29;20047;-60
2022/05/23 00:28:25;;;;;;;15.68;6.70;;;14.40;99.90;;;;;;4891007;29;20456;-61
2022/05/23 00:30:50;;;;;;;12.52;6.75;;;14.30;99.90;;;;;;4890611;29;20040;-59
2022/05/23 00:36:00;;;;;;;14.35;6.10;;;14.30;99.90;;;;;;4887875;29;20111;-60
2022/05/23 00:38:26;;;;;;;13.75;6.38;;;14.30;99.90;;;;;;4891406;29;20398;-59
2022/05/23 00:44:00;;;;;;;13.82;7.38;;;14.20;99.90;;;;;;4889263;29;20044;-60
2022/05/23 00:46:26;;;;;;;13.52;7.32;;;14.10;99.90;;;;;;4891151;29;20536;-61
2022/05/23 00:48:52;;;;;;;13.80;7.18;;;14.00;99.90;;;;;;4875033;29;20029;-60
2022/05/23 00:51:18;;;;;;;14.05;7.53;;;14.20;99.90;;;;;;4891023;29;20044;-60
2022/05/23 00:53:51;;;;;;;13.50;7.10;;;14.10;99.90;;;;;;4890686;29;20033;-60
2022/05/23 00:56:22;;;;;;;13.30;6.80;;;14.30;99.90;;;;;;4890976;29;20135;-60
2022/05/23 00:58:51;;;;;;;13.07;6.93;;;14.40;99.90;;;;;;4887428;29;20055;-61
2022/05/23 01:01:21;;;;;;;12.23;6.70;;;14.60;99.90;;;;;;4891146;29;20603;-60
2022/05/23 01:03:46;;;;;;;12.73;6.78;;;14.60;99.90;;;;;;4888305;29;20527;-60
2022/05/23 01:06:12;;;;;;;13.32;7.50;;;14.70;99.90;;;;;;4890961;29;20045;-60
2022/05/23 01:08:42;;;;;;;16.25;7.63;;;14.60;99.90;;;;;;4890463;29;20036;-59
2022/05/23 01:11:09;;;;;;;15.82;8.15;;;14.60;99.90;;;;;;4890726;29;20117;-59
2022/05/23 01:13:35;;;;;;;16.17;8.35;;;14.40;99.90;;;;;;4889925;29;20037;-59
2022/05/23 01:16:01;;;;;;;14.45;8.45;;;14.20;99.90;;;;;;4890729;29;20037;-60
2022/05/23 01:18:27;;;;;;;16.88;8.80;;;14.00;99.90;;;;;;4892582;29;20036;-60
2022/05/23 01:20:58;;;;;;;13.68;8.13;;;14.00;99.90;;;;;;4893502;29;20486;-60
2022/05/23 01:23:55;;;;;;;14.52;7.32;;;14.00;99.90;;;;;;4893053;29;20039;-60
2022/05/23 01:26:21;;;;;;;16.13;8.07;;;14.20;99.90;;;;;;4887655;29;20485;-60
2022/05/23 01:28:47;;;;;;;18.48;7.88;;;14.20;99.90;;;;;;4894005;29;20040;-59
2022/05/23 01:31:13;;;;;;;14.77;7.95;;;14.20;99.90;;;;;;4895086;29;20032;-60
2022/05/23 01:33:39;;;;;;;16.02;8.27;;;14.10;99.90;;;;;;4891433;29;20037;-61
2022/05/23 01:36:10;;;;;;;19.83;8.20;;;14.20;99.90;;;;;;4894188;29;20075;-60
2022/05/23 01:38:35;;;;;;;18.48;8.00;;;14.40;99.90;;;;;;4893366;29;20040;-60
2022/05/23 01:41:01;;;;;;;13.57;7.85;;;14.20;99.90;;;;;;4890661;29;20040;-60
2022/05/23 01:43:27;;;;;;;16.13;8.07;;;14.30;99.90;;;;;;4893670;29;20044;-59
2022/05/23 01:45:52;;;;;;;14.45;7.93;;;14.30;99.90;;;;;;4893287;29;21166;-59
2022/05/23 01:48:18;;;;;;;14.05;8.00;;;14.20;99.90;;;;;;4893631;29;20033;-60
2022/05/23 01:50:43;;;;;;;14.65;8.45;;;14.10;99.90;;;;;;4893520;29;20039;-60
2022/05/23 01:53:09;;;;;;;15.48;8.20;;;14.10;99.90;;;;;;4893539;29;20032;-60
2022/05/23 01:55:36;;;;;;;17.70;7.80;;;14.00;99.90;;;;;;4893105;29;20029;-60
2022/05/23 01:58:02;;;;;;;13.52;7.60;;;14.10;99.90;;;;;;4893744;29;20024;-59
2022/05/23 02:03:12;;;;;;;13.63;7.20;;;14.30;99.90;;;;;;4894647;29;20100;-60
2022/05/23 02:05:38;;;;;;;12.68;7.07;;;14.50;99.90;;;;;;4893514;29;20420;-61
2022/05/23 02:08:04;;;;;;;14.70;7.70;;;14.40;99.90;;;;;;4893305;29;20036;-59
2022/05/23 02:10:30;;;;;;;13.48;7.10;;;14.40;99.90;;;;;;4894810;29;20025;-60
2022/05/23 02:12:56;;;;;;;15.13;6.88;;;14.60;99.90;;;;;;4892826;29;20029;-59
2022/05/23 02:15:22;;;;;;;12.95;6.20;;;14.60;99.90;;;;;;4886886;29;20087;-60
2022/05/23 02:17:48;;;;;;;13.30;7.15;;;14.60;99.90;;;;;;4892604;29;20493;-60
2022/05/23 02:20:14;;;;;;;12.73;6.65;;;14.60;99.90;;;;;;4893525;29;20084;-60
2022/05/23 02:22:40;;;;;;;11.55;5.32;;;14.60;99.90;;;;;;4892564;29;20036;-60
2022/05/23 02:25:07;;;;;;;11.75;4.57;;;14.80;99.90;;;;;;4893262;29;20033;-60
2022/05/23 02:27:33;;;;;;;11.48;4.88;;;15.00;99.90;;;;;;4891161;29;20024;-60
2022/05/23 02:29:59;;;;;;;9.23;4.10;;;15.10;99.90;;;;;;4892377;29;20028;-60
2022/05/23 02:32:24;;;;;;;9.75;3.88;;;15.50;99.90;;;;;;4890881;29;20525;-59
2022/05/23 02:34:50;;;;;;;8.82;3.83;;;15.50;99.90;;;;;;4885873;29;20032;-60
2022/05/23 02:37:16;;;;;;;11.95;4.50;;;15.70;99.90;;;;;;4893082;29;20528;-60
2022/05/23 02:39:42;;;;;;;9.70;3.95;;;15.80;99.90;;;;;;4890424;29;20029;-61
2022/05/23 02:42:08;;;;;;;9.65;4.30;;;15.80;99.90;;;;;;4896122;29;20043;-60
2022/05/23 02:44:35;;;;;;;9.05;3.80;;;15.90;99.90;;;;;;4895224;29;20107;-60
2022/05/23 02:47:00;;;;;;;9.05;3.88;;;15.90;99.90;;;;;;4892232;29;20067;-59
2022/05/23 02:49:26;;;;;;;15.15;4.20;;;16.00;99.90;;;;;;4892761;29;20064;-59
2022/05/23 02:51:53;;;;;;;10.93;3.78;;;16.10;99.90;;;;;;4894173;29;20103;-60
2022/05/23 02:54:19;;;;;;;9.18;3.53;;;16.30;99.90;;;;;;4892685;29;20460;-59
2022/05/23 02:56:44;;;;;;;11.73;3.78;;;16.30;99.90;;;;;;4891819;29;20041;-59
2022/05/23 02:59:10;;;;;;;9.40;3.63;;;16.40;99.90;;;;;;4892492;29;20039;-60
2022/05/23 03:03:01;;;;;;;9.63;3.65;;;16.40;99.90;;;;;;4892225;29;20033;-60
2022/05/23 03:04:21;;;;;;;7.82;3.35;;;16.50;99.90;;;;;;4890116;29;20523;-59
2022/05/23 03:06:47;;;;;;;11.02;4.00;;;16.60;99.90;;;;;;4891724;29;20064;-59
2022/05/23 03:09:12;;;;;;;8.57;3.58;;;16.60;99.90;;;;;;4892264;29;20037;-59
2022/05/23 03:11:38;;;;;;;7.63;3.53;;;16.60;99.90;;;;;;4891629;29;20042;-60
2022/05/23 03:14:03;;;;;;;10.15;3.70;;;16.60;99.90;;;;;;4891934;29;20028;-59
2022/05/23 03:16:29;;;;;;;8.50;3.88;;;16.60;99.90;;;;;;4892080;29;20037;-59
2022/05/23 03:18:55;;;;;;;8.23;3.78;;;16.60;99.90;;;;;;4893455;29;20432;-60
2022/05/23 03:27:00;;;;;;;8.40;3.70;;;16.70;99.90;;;;;;4892029;29;20043;-60
2022/05/23 03:29:28;;;;;;;11.60;3.72;;;16.70;99.90;;;;;;4892138;29;20477;-60
2022/05/23 03:31:53;;;;;;;7.45;3.28;;;16.70;99.90;;;;;;4893176;29;20124;-59
2022/05/23 03:34:19;;;;;;;9.20;3.53;;;16.70;99.90;;;;;;4890153;29;20107;-59
2022/05/23 03:36:45;;;;;;;10.75;3.85;;;16.70;99.90;;;;;;4891419;29;20108;-60
2022/05/23 03:39:11;;;;;;;9.20;3.35;;;16.80;99.90;;;;;;4891796;29;20456;-59
2022/05/23 03:41:38;;;;;;;7.85;3.42;;;16.90;99.90;;;;;;4891789;29;20036;-60
2022/05/23 03:44:05;;;;;;;10.73;3.90;;;16.90;99.90;;;;;;4890849;29;20028;-60
2022/05/23 03:46:32;;;;;;;7.55;3.15;;;16.80;99.90;;;;;;4891190;29;20036;-59
2022/05/23 03:48:57;;;;;;;8.88;3.20;;;16.80;99.90;;;;;;4891075;29;20033;-60
2022/05/23 03:51:23;;;;;;;8.63;3.25;;;16.80;99.90;;;;;;4891127;29;20044;-61
2022/05/23 03:53:48;;;;;;;8.27;3.40;;;16.80;99.90;;;;;;4890707;29;20414;-60
2022/05/23 03:56:14;;;;;;;12.02;3.50;;;16.80;99.90;;;;;;4890761;29;20028;-60
2022/05/23 03:58:39;;;;;;;7.32;3.20;;;16.80;99.90;;;;;;4890988;29;20475;-59
2022/05/23 04:01:08;;;;;;;7.07;3.20;;;16.60;99.90;;;;;;4892243;29;20028;-60
2022/05/23 04:03:35;;;;;;;7.65;3.30;;;16.70;99.90;;;;;;4892058;29;20048;-60
2022/05/23 04:06:01;;;;;;;8.15;3.10;;;16.70;99.90;;;;;;4893365;29;20037;-60
2022/05/23 04:08:27;;;;;;;7.88;3.55;;;16.70;99.90;;;;;;4891309;29;20047;-60
2022/05/23 04:10:53;;;;;;;11.73;4.05;;;16.70;99.90;;;;;;4891004;29;20507;-60
2022/05/23 04:13:19;;;;;;;10.68;3.55;;;16.60;99.90;;;;;;4893454;29;20084;-60
2022/05/23 04:15:44;;;;;;;9.10;3.80;;;16.60;99.90;;;;;;4893447;29;20040;-60
2022/05/23 04:18:10;;;;;;;9.07;3.28;;;16.70;99.90;;;;;;4893963;29;20037;-60
2022/05/23 04:20:36;;;;;;;10.35;3.33;;;16.60;99.90;;;;;;4891301;29;20481;-60
2022/05/23 04:23:02;;;;;;;8.15;3.60;;;16.60;99.90;;;;;;4891529;29;20037;-60
2022/05/23 04:25:28;;;;;;;7.00;3.00;;;16.60;99.90;;;;;;4892226;29;20033;-61
2022/05/23 04:27:53;;;;;;;7.68;3.60;;;16.70;99.90;;;;;;4890601;29;20040;-59
2022/05/23 04:30:19;;;;;;;9.20;3.58;;;16.70;99.90;;;;;;4891208;29;20124;-59
2022/05/23 04:35:29;;;;;;;6.65;3.22;;;16.80;99.90;;;;;;4890029;29;20178;-59
2022/05/23 04:37:55;;;;;;;7.53;3.10;;;16.90;99.90;;;;;;4890763;29;20067;-60
2022/05/23 04:40:26;;;;;;;7.97;3.63;;;16.80;99.90;;;;;;4891034;29;20092;-60
2022/05/23 04:42:53;;;;;;;6.55;3.10;;;17.00;99.90;;;;;;4889856;29;20033;-60
2022/05/23 04:45:19;;;;;;;6.88;3.17;;;17.00;99.90;;;;;;4890729;29;20040;-61
2022/05/23 04:50:29;;;;;;;8.73;3.75;;;17.10;99.90;;;;;;4891351;29;20190;-61
2022/05/23 04:52:57;;;;;;;10.25;3.50;;;17.10;99.90;;;;;;4890716;29;20159;-60
2022/05/23 04:55:24;;;;;;;8.00;3.40;;;17.20;99.90;;;;;;4893730;29;20036;-60
2022/05/23 04:57:50;;;;;;;7.32;3.20;;;17.20;99.90;;;;;;4893328;29;20238;-60
2022/05/23 05:00:18;;;;;;;6.75;3.10;;;17.30;99.90;;;;;;4891202;29;20032;-60
2022/05/23 05:02:45;;;;;;;8.13;3.90;;;17.50;99.90;;;;;;4871298;29;20052;-59
2022/05/23 05:05:11;;;;;;;8.18;3.30;;;17.50;99.90;;;;;;4895960;29;20103;-60
2022/05/23 05:07:37;;;;;;;11.52;3.10;;;17.40;99.90;;;;;;4894612;29;20040;-59
2022/05/23 05:10:04;;;;;;;9.02;3.45;;;17.20;99.90;;;;;;4894271;29;20392;-60
2022/05/23 05:12:30;;;;;;;9.48;3.47;;;17.30;99.90;;;;;;4894772;29;20648;-60
2022/05/23 05:14:55;;;;;;;9.95;3.55;;;17.40;99.90;;;;;;4893878;29;20040;-60
2022/05/23 05:17:21;;;;;;;8.07;2.80;;;17.20;99.90;;;;;;4896751;29;20028;-60
2022/05/23 05:19:47;;;;;;;8.90;3.15;;;17.30;99.90;;;;;;4894053;29;20393;-60
2022/05/23 05:22:13;;;;;;;8.65;3.40;;;17.50;99.90;;;;;;4894545;29;20496;-60
2022/05/23 05:24:39;;;;;;;8.93;3.72;;;17.60;99.90;;;;;;4894440;29;20434;-60
2022/05/23 05:27:05;;;;;;;8.77;3.50;;;17.30;99.90;;;;;;4893586;29;20045;-59
2022/05/23 05:29:31;;;;;;;10.75;3.42;;;17.40;99.90;;;;;;4881571;29;20552;-60
2022/05/23 05:32:12;;;;;;;8.27;3.63;;;17.40;99.90;;;;;;4893675;29;20045;-59
2022/05/23 05:34:44;;;;;;;8.00;3.47;;;17.60;99.90;;;;;;4890593;29;20017;-60
2022/05/23 05:37:27;;;;;;;9.70;3.70;;;17.80;99.90;;;;;;4895540;29;20062;-60
2022/05/23 05:39:55;;;;;;;8.07;3.20;;;17.90;99.90;;;;;;4892778;29;20392;-60
2022/05/23 05:42:27;;;;;;;8.65;3.30;;;18.10;99.90;;;;;;4893976;29;20429;-60
2022/05/23 05:44:58;;;;;;;8.50;3.55;;;18.00;99.90;;;;;;4893869;29;20136;-60
2022/05/23 05:47:25;;;;;;;11.23;3.22;;;17.80;99.90;;;;;;4889846;29;20457;-59
2022/05/23 05:49:55;;;;;;;11.80;3.75;;;18.00;99.90;;;;;;4893385;29;20032;-60
2022/05/23 05:52:24;;;;;;;;;;;18.30;99.90;;;;;;4894361;29;20029;-60
2022/05/23 05:54:51;;;;;;;8.82;3.05;;;18.50;99.90;;;;;;4893418;29;19911;-59
2022/05/23 05:57:17;;;;;;;8.32;3.20;;;18.70;99.90;;;;;;4893796;29;20036;-61
2022/05/23 05:59:43;;;;;;;8.48;3.20;;;18.90;99.90;;;;;;4893374;29;20032;-59
2022/05/23 06:02:09;;;;;;;7.25;3.40;;;18.90;99.90;;;;;;4893050;29;20068;-59
2022/05/23 06:04:35;;;;;;;11.25;3.45;;;19.00;99.90;;;;;;4892263;29;20040;-60
2022/05/23 06:12:31;;;;;;;8.38;3.10;;;19.50;99.90;;;;;;4893348;29;20440;-60
2022/05/23 06:14:57;;;;;;;8.55;3.10;;;19.60;99.90;;;;;;4892613;29;20052;-60
2022/05/23 06:17:23;;;;;;;9.40;3.13;;;19.80;99.90;;;;;;4896632;29;20025;-60
2022/05/23 06:19:49;;;;;;;7.57;2.90;;;19.80;99.90;;;;;;4894863;29;20036;-60
2022/05/23 06:22:16;;;;;;;8.60;3.20;;;19.90;99.90;;;;;;4892689;29;20041;-60
2022/05/23 06:24:41;;;;;;;7.75;3.00;;;19.80;99.90;;;;;;4893171;29;20036;-61
2022/05/23 06:27:09;;;;;;;8.55;3.20;;;20.00;99.90;;;;;;4893375;29;20999;-60
2022/05/23 06:29:36;;;;;;;10.85;3.10;;;20.00;99.90;;;;;;4892466;29;20092;-59
2022/05/23 06:32:02;;;;;;;10.20;3.00;;;20.10;99.90;;;;;;4892025;29;20041;-60
2022/05/23 06:34:28;;;;;;;9.02;3.10;;;20.10;99.90;;;;;;4890654;29;20028;-60
2022/05/23 06:36:55;;;;;;;9.75;3.30;;;20.20;99.90;;;;;;4891941;29;20037;-61
2022/05/23 06:39:21;;;;;;;8.23;3.40;;;20.10;99.90;;;;;;4892391;29;20033;-60
2022/05/23 06:41:47;;;;;;;8.18;2.72;;;20.30;99.90;;;;;;4892605;29;20040;-60
2022/05/23 06:44:12;;;;;;;9.18;3.17;;;20.30;99.90;;;;;;4891591;29;20572;-60
2022/05/23 06:46:38;;;;;;;8.50;2.85;;;20.30;99.90;;;;;;4891980;29;20048;-59
2022/05/23 06:49:06;;;;;;;7.90;3.20;;;20.40;99.90;;;;;;4892226;29;20479;-60
2022/05/23 06:51:35;;;;;;;11.85;3.38;;;20.30;99.90;;;;;;4892341;29;20032;-60
2022/05/23 06:54:01;;;;;;;8.98;2.97;;;20.40;99.90;;;;;;4891859;29;20033;-60
2022/05/23 06:56:28;;;;;;;6.38;2.88;;;20.50;99.90;;;;;;4893674;29;20036;-60
2022/05/23 06:58:54;;;;;;;8.30;3.10;;;20.50;99.90;;;;;;4894472;29;20532;-60
2022/05/23 07:01:19;;;;;;;8.95;3.45;;;20.70;99.90;;;;;;4893351;29;20032;-59
2022/05/23 07:03:46;;;;;;;8.13;2.83;;;20.90;99.90;;;;;;4870906;29;20111;-59
2022/05/23 07:14:26;;;;;;;10.32;3.00;;;21.80;99.90;;;;;;4891810;29;20507;-59
2022/05/23 07:16:53;;;;;;;7.15;2.72;;;21.80;99.90;;;;;;4893439;29;20432;-59
2022/05/23 07:19:19;;;;;;;8.27;2.70;;;21.80;99.90;;;;;;4892057;29;20450;-60
2022/05/23 07:21:44;;;;;;;7.60;2.58;;;21.90;99.90;;;;;;4891656;29;20040;-59
2022/05/23 07:24:10;;;;;;;8.55;2.90;;;21.70;99.90;;;;;;4890622;29;20092;-60
2022/05/23 07:26:37;;;;;;;8.23;3.28;;;21.80;99.90;;;;;;4891494;29;20031;-60
2022/05/23 07:29:03;;;;;;;9.00;3.30;;;21.70;99.90;;;;;;4889405;29;20036;-60
2022/05/23 07:31:29;;;;;;;9.30;3.42;;;21.70;99.90;;;;;;4891142;29;20096;-61
2022/05/23 07:33:55;;;;;;;6.47;2.95;;;21.70;99.90;;;;;;4889431;29;20028;-60
2022/05/23 07:36:21;;;;;;;9.00;3.20;;;21.80;99.90;;;;;;4892041;29;20028;-60
2022/05/23 07:38:47;;;;;;;6.18;3.00;;;21.80;99.90;;;;;;4894651;29;20111;-59
2022/05/23 07:41:13;;;;;;;7.53;2.97;;;22.00;99.90;;;;;;4893248;29;20476;-60
2022/05/23 07:43:41;;;;;;;7.25;2.95;;;22.30;99.90;;;;;;4891520;29;20148;-60
2022/05/23 07:46:13;;;;;;;7.78;2.88;;;22.20;99.90;;;;;;4891026;29;20096;-60
2022/05/23 07:48:46;;;;;;;8.38;3.38;;;22.40;99.90;;;;;;4892220;29;20064;-59
2022/05/23 07:51:14;;;;;;;9.07;3.03;;;22.70;99.90;;;;;;4887155;29;20032;-60
2022/05/23 08:01:54;;;;;;;7.50;2.95;;;22.90;97.70;;;;;;4890190;29;20099;-60
2022/05/23 08:04:22;;;;;;;8.38;2.90;;;22.80;98.50;;;;;;4889082;29;20469;-60
2022/05/23 08:06:48;;;;;;;9.90;3.13;;;23.00;98.20;;;;;;4891078;29;20340;-60
2022/05/23 08:09:14;;;;;;;6.72;3.08;;;22.80;97.70;;;;;;4888837;29;20128;-60
2022/05/23 08:11:44;;;;;;;7.35;3.28;;;22.80;98.80;;;;;;4890813;29;20084;-60
2022/05/23 08:14:10;;;;;;;9.15;3.13;;;22.90;98.40;;;;;;4890196;29;20033;-59
2022/05/23 08:16:36;;;;;;;7.57;3.00;;;22.80;98.60;;;;;;4890881;29;20040;-59
2022/05/23 08:19:04;;;;;;;6.05;2.63;;;23.30;98.30;;;;;;4894308;29;20036;-60
2022/05/23 08:21:30;;;;;;;7.22;2.95;;;23.50;97.10;;;;;;4893738;29;20036;-60
2022/05/23 08:23:56;;;;;;;7.80;2.90;;;23.70;97.10;;;;;;4886852;29;20041;-60
2022/05/23 08:26:22;;;;;;;8.30;3.00;;;23.90;97.20;;;;;;4890418;29;20045;-61
2022/05/23 08:28:49;;;;;;;10.63;3.13;;;24.30;96.30;;;;;;4892261;29;20028;-60
2022/05/23 08:31:14;;;;;;;6.50;2.72;;;24.40;95.50;;;;;;4890260;29;20037;-60
2022/05/23 08:33:41;;;;;;;7.25;2.90;;;24.10;96.30;;;;;;4889122;29;20037;-60
2022/05/23 08:36:06;;;;;;;8.85;3.17;;;23.60;96.40;;;;;;4890153;29;20040;-61
2022/05/23 08:38:32;;;;;;;10.05;3.45;;;23.30;97.00;;;;;;4894133;29;20035;-60
2022/05/23 08:41:03;;;;;;;7.32;3.10;;;23.30;96.90;;;;;;4894062;29;20052;-60
2022/05/23 08:43:37;;;;;;;7.88;3.13;;;23.70;97.00;;;;;;4894438;29;20040;-60
2022/05/23 08:46:04;;;;;;;8.88;3.13;;;23.60;96.80;;;;;;4893902;29;20041;-59
2022/05/23 08:48:57;;;;;;;6.70;2.80;;;23.60;97.20;;;;;;4894118;29;20017;-60
2022/05/23 08:51:41;;;;;;;7.50;3.08;;;23.80;97.20;;;;;;4894001;29;20507;-61
2022/05/23 08:54:16;;;;;;;9.10;2.80;;;23.80;96.70;;;;;;4893065;29;20467;-60
2022/05/23 08:56:53;;;;;;;10.98;3.05;;;24.00;96.50;;;;;;4890992;29;20058;-60
2022/05/23 08:59:22;;;;;;;7.75;2.90;;;24.70;96.50;;;;;;4896415;29;20060;-60
2022/05/23 09:02:01;;;;;;;8.20;2.63;;;25.30;95.60;;;;;;4897137;29;20541;-60
2022/05/23 09:04:52;;;;;;;6.78;2.70;;;25.50;94.60;;;;;;4892248;29;20066;-60
2022/05/23 09:07:38;;;;;;;7.88;2.85;;;25.30;94.80;;;;;;4891311;29;20576;-61
2022/05/23 09:10:13;;;;;;;7.70;2.85;;;25.40;94.50;;;;;;4891875;29;20024;-60
2022/05/23 09:12:38;;;;;;;6.70;2.75;;;25.50;93.80;;;;;;4893984;29;20216;-60
2022/05/23 09:15:04;;;;;;;6.60;2.70;;;25.50;94.50;;;;;;4893548;29;20028;-60
2022/05/23 09:17:37;;;;;;;6.15;2.50;;;25.90;94.30;;;;;;4897425;29;20036;-60
2022/05/23 09:20:11;;;;;;;8.68;2.50;;;25.70;93.40;;;;;;4890827;29;20392;-59
2022/05/23 09:22:50;;;;;;;10.07;2.72;;;25.50;93.70;;;;;;4894176;29;20327;-60
2022/05/23 09:25:20;;;;;;;6.90;2.67;;;25.80;93.80;;;;;;4890709;29;20598;-59
2022/05/23 09:28:09;;;;;;;6.97;2.70;;;26.10;93.40;;;;;;4893655;29;20033;-61
2022/05/23 09:30:37;;;;;;;8.90;2.60;;;26.10;93.40;;;;;;4891914;29;20095;-60
2022/05/23 09:33:10;;;;;;;7.43;2.60;;;25.70;93.80;;;;;;4891459;29;20705;-60
2022/05/23 09:36:07;;;;;;;7.60;2.70;;;26.00;93.60;;;;;;4889980;29;20417;-60
2022/05/23 09:38:45;;;;;;;6.63;2.88;;;26.40;93.70;;;;;;4884461;29;20123;-60
2022/05/23 09:47:44;;;;;;;5.88;2.47;;;27.00;92.80;;;;;;4896194;29;20028;-60
2022/05/23 09:49:46;;;;;;;8.13;2.85;;;26.90;92.70;;;;;;4894980;29;20039;-60
2022/05/23 09:52:29;;;;;;;7.22;2.55;;;27.20;91.20;;;;;;4892880;29;20076;-60
2022/05/23 09:55:12;;;;;;;6.00;2.28;;;27.10;92.30;;;;;;4893558;29;20020;-61
2022/05/23 09:57:50;;;;;;;8.38;2.92;;;26.40;91.70;;;;;;4891119;29;20104;-60
2022/05/23 10:00:18;;;;;;;7.57;2.72;;;25.70;92.80;;;;;;4869386;29;20028;-60
2022/05/23 10:02:59;;;;;;;6.50;2.70;;;25.70;92.90;;;;;;4891117;29;20372;-60
2022/05/23 10:05:30;;;;;;;7.03;2.80;;;25.40;93.50;;;;;;4892944;29;20036;-61
2022/05/23 10:08:29;;;;;;;7.15;2.67;;;25.20;93.40;;;;;;4889976;29;20025;-60
2022/05/23 10:10:59;;;;;;;8.55;2.60;;;25.10;93.60;;;;;;4893007;29;20033;-60
2022/05/23 10:13:28;;;;;;;9.05;2.40;;;25.20;93.80;;;;;;4892831;29;20088;-60
2022/05/23 10:16:00;;;;;;;7.45;2.13;;;25.30;93.50;;;;;;4892874;29;20029;-60
2022/05/23 10:18:31;;;;;;;5.78;2.08;;;25.70;92.90;;;;;;4895030;29;20036;-60
2022/05/23 10:20:59;;;;;;;7.43;2.40;;;26.20;92.20;;;;;;4896032;29;20024;-60
2022/05/23 10:23:30;;;;;;;8.05;2.00;;;27.40;91.50;;;;;;4895791;29;20223;-61
2022/05/23 10:26:33;;;;;;;7.72;1.90;;;28.30;91.00;;;;;;4890624;29;20040;-60
2022/05/23 10:29:16;;;;;;;7.78;2.17;;;28.50;90.20;;;;;;4880850;29;20513;-60
2022/05/23 10:31:48;;;;;;;6.20;2.10;;;28.60;89.10;;;;;;4890977;29;20088;-61
2022/05/23 10:34:38;;;;;;;6.20;2.38;;;29.30;89.40;;;;;;4890035;29;20154;-60
2022/05/23 10:37:07;;;;;;;5.45;2.10;;;29.70;89.20;;;;;;4890321;29;20040;-60
2022/05/23 10:42:47;;;;;;;13.55;2.40;;;29.10;88.10;;;;;;4890645;29;20042;-60
2022/05/23 10:45:22;;;;;;;6.22;2.38;;;28.30;87.10;;;;;;4890566;29;20028;-60
2022/05/23 10:48:05;;;;;;;8.40;2.17;;;28.10;87.80;;;;;;4889471;29;20374;-60
2022/05/23 10:51:08;;;;;;;7.93;1.70;;;28.60;88.00;;;;;;4892184;29;20027;-60
2022/05/23 10:54:04;;;;;;;7.95;2.08;;;29.00;88.80;;;;;;4890631;29;20433;-60
2022/05/23 10:57:05;;;;;;;6.70;2.17;;;30.30;85.40;;;;;;4890589;29;20133;-60
2022/05/23 10:59:53;;;;;;;6.57;1.90;;;31.30;83.10;;;;;;4890859;29;20386;-61
2022/05/23 11:02:25;;;;;;;10.40;2.00;;;31.60;81.30;;;;;;4892968;29;20400;-60
2022/05/23 11:05:06;;;;;;;6.90;2.05;;;31.80;81.90;;;;;;4890880;29;20028;-61
2022/05/23 11:08:00;;;;;;;8.88;2.28;;;31.80;79.90;;;;;;4891529;29;20050;-60
2022/05/23 11:11:10;;;;;;;7.10;2.00;;;31.50;79.60;;;;;;4892056;29;20076;-61
2022/05/23 11:14:00;;;;;;;6.53;1.90;;;31.30;79.80;;;;;;4889962;29;20025;-60
2022/05/23 11:16:47;;;;;;;7.68;1.90;;;30.80;80.60;;;;;;4891152;29;20370;-60
2022/05/23 11:19:25;;;;;;;7.50;2.10;;;31.30;81.00;;;;;;4891181;29;20035;-60
2022/05/23 11:22:14;;;;;;;8.77;1.88;;;31.30;78.90;;;;;;4891443;29;20032;-61
2022/05/23 11:25:01;;;;;;;8.57;2.13;;;31.50;77.50;;;;;;4891098;29;20040;-60
2022/05/23 11:35:54;;;;;;;6.25;1.80;;;31.10;77.50;;;;;;4891518;29;20104;-60
2022/05/23 11:38:20;;;;;;;7.32;1.90;;;31.10;76.70;;;;;;4890556;29;20331;-60
2022/05/23 11:40:53;;;;;;;5.28;2.20;;;31.00;78.00;;;;;;4892710;29;20400;-60
2022/05/23 11:43:23;;;;;;;8.65;2.20;;;31.20;77.70;;;;;;4891183;29;20032;-61
2022/05/23 11:46:04;;;;;;;6.63;2.42;;;31.60;76.90;;;;;;4892992;29;20112;-60
2022/05/23 11:48:37;;;;;;;8.13;1.85;;;30.90;76.00;;;;;;4889651;29;20135;-59
2022/05/23 11:51:11;;;;;;;10.60;2.00;;;31.00;77.10;;;;;;4892618;29;20035;-61
2022/05/23 11:53:40;;;;;;;6.70;2.03;;;31.10;76.40;;;;;;4890928;29;20029;-60
2022/05/23 11:56:09;;;;;;;7.47;1.90;;;30.50;77.80;;;;;;4887174;29;20039;-60
2022/05/23 11:58:49;;;;;;;8.80;2.40;;;30.40;78.80;;;;;;4891413;29;20049;-60
2022/05/23 12:01:20;;;;;;;6.43;2.00;;;30.40;80.10;;;;;;4890268;29;20363;-60
2022/05/23 12:03:51;;;;;;;6.32;2.00;;;30.50;78.40;;;;;;4888742;29;20064;-60
2022/05/23 12:06:18;;;;;;;6.88;2.10;;;30.80;79.00;;;;;;4890643;29;20080;-60
2022/05/23 12:09:22;;;;;;;6.55;2.05;;;30.80;80.00;;;;;;4890604;29;20128;-60
2022/05/23 12:12:12;;;;;;;8.20;2.30;;;30.50;80.60;;;;;;4887708;29;20040;-60
2022/05/23 12:14:38;;;;;;;7.00;2.15;;;31.70;80.00;;;;;;4888954;29;20091;-60
2022/05/23 12:17:11;;;;;;;5.68;2.20;;;31.20;79.00;;;;;;4893136;29;20035;-61
2022/05/23 12:19:39;;;;;;;9.13;2.03;;;31.50;80.20;;;;;;4890631;29;20040;-61
2022/05/23 12:22:23;;;;;;;8.33;2.30;;;31.80;78.80;;;;;;4892302;29;20460;-60
2022/05/23 12:25:00;;;;;;;7.18;2.35;;;31.80;78.10;;;;;;4892103;29;20393;-60
2022/05/23 12:27:52;;;;;;;6.97;2.25;;;32.00;77.80;;;;;;4890871;29;20035;-60
2022/05/23 12:30:21;;;;;;;11.30;2.58;;;31.90;78.60;;;;;;4884410;29;20115;-60
2022/05/23 12:32:54;;;;;;;7.93;2.33;;;31.20;78.40;;;;;;4890191;29;20037;-60
2022/05/23 12:35:27;;;;;;;6.40;2.50;;;31.20;79.10;;;;;;4890059;29;20033;-60
2022/05/23 12:37:59;;;;;;;8.27;2.72;;;30.40;79.90;;;;;;4887703;29;20108;-60
2022/05/23 12:40:31;;;;;;;6.57;2.40;;;31.00;81.20;;;;;;4886639;29;20056;-60
2022/05/23 12:43:09;;;;;;;7.65;2.20;;;31.50;79.40;;;;;;4890562;29;20025;-61
2022/05/23 12:45:56;;;;;;;6.78;2.10;;;31.10;79.20;;;;;;4887718;29;20477;-60
2022/05/23 12:48:31;;;;;;;6.47;2.28;;;31.80;79.80;;;;;;4887557;29;20473;-60
2022/05/23 12:51:36;;;;;;;6.00;2.30;;;30.90;79.90;;;;;;4890123;29;20032;-61
2022/05/23 12:54:27;;;;;;;5.32;2.10;;;31.40;79.00;;;;;;4865359;29;20076;-60
2022/05/23 12:57:07;;;;;;;8.80;2.10;;;31.10;78.90;;;;;;4887712;29;20418;-61
2022/05/23 13:00:05;;;;;;;7.13;2.60;;;31.30;79.20;;;;;;4890091;29;20029;-60
2022/05/23 13:02:45;;;;;;;6.65;2.25;;;31.20;78.90;;;;;;4888846;29;20044;-60
2022/05/23 13:05:30;;;;;;;7.70;2.13;;;31.10;80.00;;;;;;4892689;29;20037;-60
2022/05/23 13:08:21;;;;;;;7.15;2.35;;;31.20;80.00;;;;;;4888934;29;20120;-60
2022/05/23 13:11:04;;;;;;;8.18;2.88;;;30.30;80.20;;;;;;4888856;29;20028;-61
2022/05/23 13:13:39;;;;;;;6.90;2.33;;;29.80;82.10;;;;;;4890708;29;20378;-60
2022/05/23 13:16:29;;;;;;;5.47;2.08;;;29.50;83.10;;;;;;4889983;29;20029;-60
2022/05/23 13:22:05;;;;;;;7.50;2.70;;;28.80;83.90;;;;;;4890036;29;20047;-60
2022/05/23 13:27:27;;;;;;;9.77;2.33;;;28.40;85.90;;;;;;4890207;29;20518;-59
2022/05/23 13:29:58;;;;;;;6.32;2.20;;;28.00;86.60;;;;;;4893455;29;20035;-60
2022/05/23 13:32:26;;;;;;;8.95;2.70;;;28.00;87.40;;;;;;4888325;29;20131;-60
2022/05/23 13:34:54;;;;;;;7.97;2.92;;;27.70;88.00;;;;;;4893800;29;20037;-60
2022/05/23 13:37:35;;;;;;;8.18;2.85;;;27.30;88.70;;;;;;4892969;29;20040;-60
2022/05/23 13:40:24;;;;;;;10.02;2.85;;;27.40;90.00;;;;;;4890215;29;20036;-60
2022/05/23 13:42:50;;;;;;;7.50;2.78;;;27.30;90.40;;;;;;4894509;29;20560;-60
2022/05/23 13:45:25;;;;;;;7.63;2.65;;;26.90;90.20;;;;;;4895905;29;20036;-60
2022/05/23 13:48:02;;;;;;;7.57;3.08;;;26.60;90.60;;;;;;4895048;29;20707;-60
2022/05/23 13:50:35;;;;;;;8.02;2.80;;;26.10;91.20;;;;;;4889702;29;20759;-61
2022/05/23 13:53:25;;;;;;;7.55;2.92;;;25.70;91.60;;;;;;4894510;29;20036;-60
2022/05/23 13:55:51;;;;;;;8.32;2.95;;;25.40;92.50;;;;;;4893159;29;20507;-60
2022/05/23 13:58:22;;;;;;;10.73;3.60;;;25.40;92.80;;;;;;4892677;29;20499;-60
2022/05/23 14:01:02;;;;;;;10.43;3.03;;;25.40;92.90;;;;;;4893029;29;20033;-60
2022/05/23 14:03:44;;;;;;;9.50;3.53;;;25.30;93.20;;;;;;4888440;29;20104;-60
2022/05/23 14:06:16;;;;;;;9.95;3.10;;;25.20;94.30;;;;;;4889820;29;20384;-60
2022/05/23 14:08:46;;;;;;;8.50;3.40;;;25.10;94.40;;;;;;4893336;29;20135;-60